Time;durP1;ratioP1;P1;durP2;ratioP2;P2;SDS_P1;SDS_P2;PMS_P1;PMS_P2;Temp;Humidity;BMP_temperature;BMP_pressure;BME280_temperature;BME280_humidity;BME280_pressure;Samples;Min_cycle;Max_cycle;Signal;HPM_P1;HPM_P2
2021/06/14 00:00:28;;;;;;;4.05;2.65;;;23.80;54.10;;;;;;5241700;28;20040;-54
2021/06/14 00:03:01;;;;;;;4.00;2.50;;;23.80;54.20;;;;;;5225013;28;20051;-56
2021/06/14 00:05:42;;;;;;;4.47;2.20;;;23.80;54.30;;;;;;5245075;28;20424;-55
2021/06/14 00:08:21;;;;;;;3.88;2.35;;;23.80;54.10;;;;;;5241690;28;20819;-55
2021/06/14 00:10:56;;;;;;;4.13;2.20;;;23.80;54.00;;;;;;5245573;28;20056;-55
2021/06/14 00:13:29;;;;;;;4.25;2.45;;;23.80;53.90;;;;;;5243021;28;20060;-51
2021/06/14 00:16:02;;;;;;;6.05;2.38;;;23.80;53.90;;;;;;5245758;28;20052;-51
2021/06/14 00:18:36;;;;;;;2.65;2.03;;;23.70;53.90;;;;;;5232073;28;20059;-49
2021/06/14 00:21:11;;;;;;;5.03;2.42;;;23.80;53.90;;;;;;5245332;28;20394;-56
2021/06/14 00:23:44;;;;;;;4.97;2.08;;;23.80;53.90;;;;;;5243807;28;20055;-54
2021/06/14 00:26:16;;;;;;;5.22;2.30;;;23.80;53.90;;;;;;5245216;28;20048;-56
2021/06/14 00:28:49;;;;;;;3.78;2.45;;;23.80;53.90;;;;;;5239101;28;20064;-56
2021/06/14 00:31:23;;;;;;;4.00;2.50;;;23.80;53.90;;;;;;5229137;28;20052;-53
2021/06/14 00:33:55;;;;;;;4.35;2.30;;;23.70;53.90;;;;;;5225206;28;20056;-54
2021/06/14 00:36:28;;;;;;;5.75;2.60;;;23.70;53.80;;;;;;5223864;28;20054;-50
2021/06/14 00:39:01;;;;;;;4.00;2.50;;;23.70;53.80;;;;;;5239167;28;20059;-55
2021/06/14 00:41:33;;;;;;;4.83;2.57;;;23.70;53.80;;;;;;5236172;28;20052;-56
2021/06/14 00:44:06;;;;;;;3.77;2.40;;;23.70;53.80;;;;;;5241725;28;20056;-51
2021/06/14 00:46:39;;;;;;;5.87;2.77;;;23.70;53.80;;;;;;5226705;28;20719;-52
2021/06/14 00:49:11;;;;;;;5.05;2.13;;;23.70;53.90;;;;;;5243061;28;20064;-51
2021/06/14 00:51:44;;;;;;;7.43;2.57;;;23.70;53.90;;;;;;5229341;28;20060;-50
2021/06/14 00:54:18;;;;;;;3.05;2.15;;;23.70;53.80;;;;;;5229318;28;20413;-55
2021/06/14 00:56:51;;;;;;;3.50;2.20;;;23.70;53.80;;;;;;5237886;28;20052;-52
2021/06/14 00:59:25;;;;;;;3.22;2.30;;;23.70;53.80;;;;;;5239990;28;20515;-54
2021/06/14 01:01:58;;;;;;;8.77;3.08;;;23.70;53.70;;;;;;5221868;28;20270;-53
2021/06/14 01:04:31;;;;;;;4.05;2.40;;;23.70;53.70;;;;;;5240274;28;20048;-55
2021/06/14 01:07:04;;;;;;;6.17;2.57;;;23.70;53.70;;;;;;5226953;28;20052;-55
2021/06/14 01:09:38;;;;;;;3.67;2.50;;;23.70;53.70;;;;;;5232162;28;20562;-53
2021/06/14 01:12:13;;;;;;;;;;;23.70;53.80;;;;;;5249510;28;20526;-53
2021/06/14 01:15:01;;;;;;;4.13;2.42;;;23.60;53.70;;;;;;5245405;28;19924;-50
2021/06/14 01:17:37;;;;;;;2.47;2.17;;;23.70;53.80;;;;;;5250573;28;20044;-55
2021/06/14 01:20:14;;;;;;;6.10;2.30;;;23.70;53.70;;;;;;5224624;28;20555;-55
2021/06/14 01:23:16;;;;;;;7.82;2.53;;;23.70;53.70;;;;;;5231625;28;20049;-55
2021/06/14 01:26:01;;;;;;;3.90;2.45;;;23.70;53.70;;;;;;5243069;28;20060;-53
2021/06/14 01:28:39;;;;;;;5.40;2.17;;;23.70;53.70;;;;;;5252143;28;20415;-57
2021/06/14 01:31:18;;;;;;;8.90;2.35;;;23.70;53.60;;;;;;5240958;28;20048;-55
2021/06/14 01:33:53;;;;;;;3.53;2.17;;;23.70;53.70;;;;;;5231572;28;20056;-56
2021/06/14 01:36:30;;;;;;;3.35;2.28;;;23.70;53.70;;;;;;5227190;28;20426;-55
2021/06/14 01:39:05;;;;;;;4.10;1.90;;;23.70;53.60;;;;;;5246914;28;20468;-53
2021/06/14 01:41:40;;;;;;;6.40;2.22;;;23.70;53.50;;;;;;5230012;28;20415;-50
2021/06/14 01:44:19;;;;;;;3.22;2.35;;;23.70;53.50;;;;;;5242708;28;20501;-53
2021/06/14 01:46:56;;;;;;;3.85;2.13;;;23.60;53.40;;;;;;5243432;28;21149;-54
2021/06/14 01:49:30;;;;;;;6.00;2.33;;;23.70;53.50;;;;;;5243929;28;20052;-50
2021/06/14 01:52:12;;;;;;;5.25;2.85;;;23.70;54.10;;;;;;5232879;28;20432;-54
2021/06/14 01:54:46;;;;;;;2.92;2.22;;;23.70;53.40;;;;;;5227277;28;20047;-54
2021/06/14 01:57:26;;;;;;;5.40;2.33;;;23.60;53.30;;;;;;5226210;28;20056;-53
2021/06/14 02:00:14;;;;;;;5.43;2.30;;;23.60;53.30;;;;;;5224840;28;20545;-51
2021/06/14 02:02:55;;;;;;;6.05;2.40;;;23.60;53.30;;;;;;5232415;28;20056;-56
2021/06/14 02:05:42;;;;;;;8.45;2.20;;;23.60;53.20;;;;;;5225259;28;20440;-54
2021/06/14 02:08:18;;;;;;;4.80;2.50;;;23.60;53.30;;;;;;5246537;28;20052;-54
2021/06/14 02:10:50;;;;;;;5.47;2.65;;;23.60;53.20;;;;;;5214470;28;20052;-55
2021/06/14 02:13:24;;;;;;;4.00;2.13;;;23.60;53.10;;;;;;5227207;28;20056;-56
2021/06/14 02:15:56;;;;;;;3.38;2.10;;;23.60;53.00;;;;;;5213016;28;20048;-53
2021/06/14 02:18:29;;;;;;;4.95;2.20;;;23.60;53.00;;;;;;5244665;28;20040;-53
2021/06/14 02:21:11;;;;;;;5.20;2.20;;;23.60;53.10;;;;;;5228264;28;20040;-54
2021/06/14 02:23:45;;;;;;;3.55;2.10;;;23.60;53.00;;;;;;5230852;28;20055;-55
2021/06/14 02:26:17;;;;;;;4.90;1.95;;;23.60;52.90;;;;;;5242258;28;20048;-55
2021/06/14 02:28:50;;;;;;;4.85;2.03;;;23.60;52.90;;;;;;5231564;28;20059;-55
2021/06/14 02:31:23;;;;;;;4.97;2.35;;;23.60;52.90;;;;;;5225544;28;20508;-55
2021/06/14 02:33:56;;;;;;;3.17;2.50;;;23.60;53.00;;;;;;5228120;28;20059;-53
2021/06/14 02:36:29;;;;;;;3.13;2.08;;;23.60;52.90;;;;;;5230569;28;20507;-56
2021/06/14 02:39:08;;;;;;;2.63;2.00;;;23.60;52.90;;;;;;5243298;28;20501;-50
2021/06/14 02:41:45;;;;;;;2.50;2.30;;;23.60;52.70;;;;;;5231361;28;20473;-52
2021/06/14 02:44:22;;;;;;;9.23;2.78;;;23.60;52.70;;;;;;5247494;28;20060;-53
2021/06/14 02:47:05;;;;;;;7.68;2.58;;;23.60;52.80;;;;;;5240304;28;20051;-56
2021/06/14 02:49:40;;;;;;;4.65;2.70;;;23.60;52.90;;;;;;5231173;28;20049;-54
2021/06/14 02:52:15;;;;;;;4.97;2.35;;;23.60;52.80;;;;;;5230586;28;20051;-55
2021/06/14 02:54:57;;;;;;;6.68;2.70;;;23.60;52.90;;;;;;5228281;28;20052;-56
2021/06/14 02:57:31;;;;;;;5.55;2.25;;;23.50;52.80;;;;;;5222798;28;20048;-55
2021/06/14 03:00:07;;;;;;;4.13;2.25;;;23.50;52.70;;;;;;5223957;28;20067;-52
2021/06/14 03:02:42;;;;;;;3.47;2.50;;;23.50;52.90;;;;;;5226792;28;20048;-53
2021/06/14 03:05:16;;;;;;;5.35;2.50;;;23.50;52.70;;;;;;5225640;28;20095;-53
2021/06/14 03:07:50;;;;;;;3.17;2.00;;;23.50;52.70;;;;;;5228023;28;20058;-51
2021/06/14 03:10:26;;;;;;;5.55;2.30;;;23.50;52.60;;;;;;5239724;28;20580;-53
2021/06/14 03:13:01;;;;;;;7.60;2.72;;;23.50;52.60;;;;;;5226403;28;20053;-56
2021/06/14 03:15:35;;;;;;;6.30;2.80;;;23.50;52.50;;;;;;5229371;28;20801;-53
2021/06/14 03:18:09;;;;;;;6.50;2.53;;;23.50;52.60;;;;;;5243015;28;20059;-54
2021/06/14 03:20:45;;;;;;;5.32;2.30;;;23.50;52.50;;;;;;5244643;28;20048;-53
2021/06/14 03:23:17;;;;;;;6.03;2.38;;;23.50;52.50;;;;;;5224031;28;20403;-56
2021/06/14 03:25:51;;;;;;;4.18;2.47;;;23.50;52.50;;;;;;5237165;28;20051;-52
2021/06/14 03:28:24;;;;;;;4.47;2.30;;;23.50;52.50;;;;;;5242943;28;20044;-55
2021/06/14 03:30:57;;;;;;;5.50;2.25;;;23.50;52.50;;;;;;5236007;28;20059;-56
2021/06/14 03:33:30;;;;;;;5.03;2.35;;;23.50;52.60;;;;;;5231404;28;20085;-55
2021/06/14 03:36:04;;;;;;;5.38;2.65;;;23.50;52.40;;;;;;5239334;28;20052;-55
2021/06/14 03:38:36;;;;;;;3.28;2.50;;;23.50;52.80;;;;;;5240208;28;20067;-55
2021/06/14 03:41:09;;;;;;;5.95;2.50;;;23.50;53.20;;;;;;5229988;28;20055;-54
2021/06/14 03:43:42;;;;;;;2.88;2.40;;;23.50;53.40;;;;;;5241924;28;20055;-56
2021/06/14 03:46:15;;;;;;;4.13;2.45;;;23.50;53.60;;;;;;5236274;28;20049;-54
2021/06/14 03:48:48;;;;;;;6.72;2.67;;;23.50;53.80;;;;;;5219292;28;20134;-55
2021/06/14 03:51:21;;;;;;;6.10;2.15;;;23.50;54.00;;;;;;5237768;28;20059;-57
2021/06/14 03:53:56;;;;;;;4.68;2.17;;;23.50;54.20;;;;;;5241778;28;20036;-53
2021/06/14 03:56:31;;;;;;;5.82;2.17;;;23.50;54.30;;;;;;5242745;28;25687;-52
2021/06/14 03:59:04;;;;;;;4.00;2.50;;;23.50;54.40;;;;;;5224816;28;20420;-55
2021/06/14 04:01:37;;;;;;;3.92;2.35;;;23.50;54.60;;;;;;5240942;28;20532;-55
2021/06/14 04:06:46;;;;;;;3.05;2.20;;;23.60;54.80;;;;;;5226331;28;20049;-53
2021/06/14 04:09:19;;;;;;;5.70;2.20;;;23.60;54.90;;;;;;5244974;28;20094;-51
2021/06/14 04:11:51;;;;;;;3.50;2.10;;;23.60;55.00;;;;;;5243385;28;20057;-50
2021/06/14 04:14:24;;;;;;;3.92;2.42;;;23.60;55.10;;;;;;5244216;28;20078;-56
2021/06/14 04:16:56;;;;;;;5.28;1.95;;;23.50;55.00;;;;;;5245068;28;20067;-52
2021/06/14 04:19:29;;;;;;;8.43;2.13;;;23.50;55.10;;;;;;5245970;28;20960;-55
2021/06/14 04:22:03;;;;;;;7.05;2.15;;;23.60;55.30;;;;;;5234769;28;20298;-52
2021/06/14 04:24:36;;;;;;;3.70;1.88;;;23.60;55.40;;;;;;5241227;28;20063;-48
2021/06/14 04:27:09;;;;;;;5.43;2.53;;;23.60;55.40;;;;;;5244531;28;20055;-56
2021/06/14 04:29:42;;;;;;;8.93;1.92;;;23.60;56.20;;;;;;5242795;28;20056;-56
2021/06/14 04:32:15;;;;;;;2.65;1.95;;;23.60;55.60;;;;;;5240572;28;20060;-56
2021/06/14 04:34:49;;;;;;;3.67;2.03;;;23.60;55.70;;;;;;5242643;28;20056;-54
2021/06/14 04:37:22;;;;;;;5.22;1.90;;;23.60;55.80;;;;;;5232440;28;20075;-55
2021/06/14 04:39:55;;;;;;;4.90;1.98;;;23.60;55.80;;;;;;5237203;28;20480;-56
2021/06/14 04:42:29;;;;;;;5.70;2.15;;;23.60;55.80;;;;;;5239182;28;20420;-54
2021/06/14 04:45:02;;;;;;;5.05;2.08;;;23.60;55.90;;;;;;5235569;28;20543;-53
2021/06/14 04:47:35;;;;;;;4.63;1.98;;;23.60;56.00;;;;;;5237786;28;20048;-56
2021/06/14 04:50:08;;;;;;;7.50;2.67;;;23.60;56.00;;;;;;5241813;28;20051;-56
2021/06/14 04:52:41;;;;;;;12.48;2.72;;;23.60;56.00;;;;;;5232635;28;20665;-54
2021/06/14 04:55:13;;;;;;;6.03;3.10;;;23.60;56.30;;;;;;5241399;28;20059;-56
2021/06/14 04:57:46;;;;;;;5.13;3.42;;;23.50;52.90;;;;;;5241839;28;20995;-57
2021/06/14 05:00:20;;;;;;;4.25;3.25;;;23.50;52.10;;;;;;5232755;28;20052;-57
2021/06/14 05:02:52;;;;;;;7.38;3.42;;;23.30;51.40;;;;;;5222449;28;20382;-56
2021/06/14 05:05:25;;;;;;;6.63;3.35;;;23.20;51.00;;;;;;5237506;28;20051;-55
2021/06/14 05:07:58;;;;;;;5.65;3.22;;;23.10;51.50;;;;;;5239166;28;20044;-57
2021/06/14 05:10:31;;;;;;;;;;;22.90;51.50;;;;;;5239959;28;20058;-55
2021/06/14 05:13:03;;;;;;;6.38;3.80;;;22.80;50.80;;;;;;5241182;28;20139;-55
2021/06/14 05:15:36;;;;;;;6.10;3.90;;;22.80;51.20;;;;;;5239369;28;20055;-54
2021/06/14 05:18:09;;;;;;;9.60;4.72;;;22.60;51.30;;;;;;5235679;28;20047;-54
2021/06/14 05:20:42;;;;;;;8.23;4.25;;;22.70;51.30;;;;;;5244329;28;20043;-53
2021/06/14 05:23:14;;;;;;;10.23;3.08;;;22.60;51.30;;;;;;5241816;28;20048;-60
2021/06/14 05:25:47;;;;;;;8.82;3.42;;;22.60;53.90;;;;;;5233941;28;20071;-49
2021/06/14 05:28:20;;;;;;;16.05;3.90;;;22.70;54.40;;;;;;5234348;28;20524;-49
2021/06/14 05:30:52;;;;;;;8.60;3.78;;;22.70;54.00;;;;;;5236381;28;20067;-54
2021/06/14 05:33:25;;;;;;;6.47;3.72;;;22.70;52.20;;;;;;5237653;28;20056;-55
2021/06/14 05:35:58;;;;;;;8.05;3.70;;;22.60;51.70;;;;;;5237211;28;20065;-55
2021/06/14 05:38:30;;;;;;;8.25;3.88;;;22.50;51.60;;;;;;5228936;28;20051;-52
2021/06/14 05:41:03;;;;;;;6.15;3.75;;;22.50;51.70;;;;;;5247979;28;20060;-53
2021/06/14 05:43:35;;;;;;;7.85;4.40;;;22.50;52.10;;;;;;5248420;28;20044;-51
2021/06/14 05:46:08;;;;;;;6.17;3.57;;;22.40;52.10;;;;;;5242508;28;20329;-53
2021/06/14 05:48:41;;;;;;;9.77;3.60;;;22.40;52.30;;;;;;5248606;28;20052;-54
2021/06/14 05:51:13;;;;;;;8.27;3.83;;;22.30;52.80;;;;;;5242905;28;20067;-52
2021/06/14 05:53:48;;;;;;;9.45;3.67;;;22.30;52.90;;;;;;5245109;28;20077;-54
2021/06/14 05:56:21;;;;;;;9.05;3.72;;;22.40;53.10;;;;;;5241340;28;20512;-56
2021/06/14 05:58:53;;;;;;;7.85;3.35;;;22.40;53.10;;;;;;5244646;28;20053;-55
2021/06/14 06:01:29;;;;;;;7.80;3.95;;;22.50;53.20;;;;;;5238422;28;20052;-54
2021/06/14 06:04:01;;;;;;;5.28;2.92;;;22.50;53.40;;;;;;5240883;28;20063;-54
2021/06/14 06:06:34;;;;;;;5.00;2.97;;;22.50;53.50;;;;;;5238816;28;20070;-53
2021/06/14 06:09:07;;;;;;;7.18;3.60;;;22.60;53.60;;;;;;5242969;28;20420;-51
2021/06/14 06:11:39;;;;;;;7.22;2.95;;;22.60;53.70;;;;;;5242384;28;20143;-51
2021/06/14 06:14:13;;;;;;;6.22;3.60;;;22.60;53.80;;;;;;5229547;28;20056;-53
2021/06/14 06:16:45;;;;;;;;;;;22.60;53.80;;;;;;5243704;28;20063;-52
2021/06/14 06:19:18;;;;;;;7.53;3.45;;;22.60;54.00;;;;;;5245859;28;19931;-51
2021/06/14 06:21:52;;;;;;;3.95;2.70;;;22.60;54.60;;;;;;5241419;28;20539;-55
2021/06/14 06:24:25;;;;;;;;;;;22.70;54.00;;;;;;5247974;28;20059;-55
2021/06/14 06:26:59;;;;;;;7.38;3.17;;;22.60;53.70;;;;;;5243249;28;19936;-52
2021/06/14 06:29:32;;;;;;;9.18;3.60;;;22.70;53.90;;;;;;5232451;28;20071;-53
2021/06/14 06:32:05;;;;;;;10.88;3.60;;;22.70;54.20;;;;;;5240329;28;20056;-48
2021/06/14 06:34:38;;;;;;;8.43;3.60;;;22.70;54.10;;;;;;5245248;28;20056;-55
2021/06/14 06:37:11;;;;;;;8.50;3.85;;;22.70;54.20;;;;;;5244071;28;20500;-50
2021/06/14 06:39:43;;;;;;;4.70;3.08;;;22.80;54.20;;;;;;5240596;28;20519;-50
2021/06/14 06:42:16;;;;;;;7.30;3.70;;;22.80;54.30;;;;;;5240661;28;20057;-52
2021/06/14 06:44:48;;;;;;;6.05;3.47;;;22.90;54.50;;;;;;5229973;28;20127;-52
2021/06/14 06:47:21;;;;;;;5.78;3.30;;;22.90;55.30;;;;;;5245018;28;20059;-53
2021/06/14 06:49:53;;;;;;;7.70;3.40;;;22.90;54.70;;;;;;5243931;28;20072;-49
2021/06/14 06:52:27;;;;;;;4.90;3.10;;;23.00;55.10;;;;;;5227317;28;20510;-53
2021/06/14 06:54:59;;;;;;;12.20;3.63;;;23.00;54.70;;;;;;5227473;28;20056;-52
2021/06/14 06:57:31;;;;;;;5.55;3.28;;;23.00;54.60;;;;;;5239877;28;20061;-53
2021/06/14 07:00:15;;;;;;;6.90;3.50;;;23.00;54.70;;;;;;5239028;28;20048;-51
2021/06/14 07:02:47;;;;;;;8.02;3.67;;;23.00;54.60;;;;;;5248231;28;20040;-52
2021/06/14 07:05:39;;;;;;;10.20;3.30;;;23.00;54.50;;;;;;5247862;28;20052;-50
2021/06/14 07:08:12;;;;;;;8.70;4.30;;;23.10;54.60;;;;;;5244865;28;20067;-52
2021/06/14 07:10:44;;;;;;;6.07;3.43;;;23.10;54.60;;;;;;5245846;28;20044;-56
2021/06/14 07:13:17;;;;;;;5.07;3.10;;;23.10;54.60;;;;;;5253185;28;20503;-51
2021/06/14 07:15:49;;;;;;;7.18;3.65;;;23.10;54.60;;;;;;5235658;28;20040;-51
2021/06/14 07:18:22;;;;;;;9.98;3.38;;;23.10;54.60;;;;;;5252799;28;20059;-54
2021/06/14 07:20:58;;;;;;;5.80;3.13;;;23.20;54.50;;;;;;5240202;28;20076;-50
2021/06/14 07:23:31;;;;;;;6.40;3.47;;;23.20;54.50;;;;;;5254540;28;20044;-51
2021/06/14 07:26:04;;;;;;;7.70;3.38;;;23.20;54.40;;;;;;5249687;28;20059;-52
2021/06/14 07:28:37;;;;;;;6.07;3.43;;;23.20;54.40;;;;;;5251461;28;20543;-52
2021/06/14 07:31:10;;;;;;;5.13;3.15;;;23.20;54.40;;;;;;5250941;28;20298;-54
2021/06/14 07:33:43;;;;;;;3.55;2.63;;;23.20;54.30;;;;;;5253092;28;20444;-51
2021/06/14 07:36:16;;;;;;;5.18;3.13;;;23.20;54.30;;;;;;5232776;28;20052;-52
2021/06/14 07:38:49;;;;;;;6.70;3.23;;;23.20;54.40;;;;;;5245913;28;20415;-53
2021/06/14 07:41:22;;;;;;;3.42;2.88;;;23.20;54.30;;;;;;5250577;28;20654;-54
2021/06/14 07:43:55;;;;;;;6.70;2.50;;;23.30;54.30;;;;;;5245642;28;20055;-54
2021/06/14 07:46:27;;;;;;;7.07;3.40;;;23.30;54.30;;;;;;5247584;28;20071;-51
2021/06/14 07:49:00;;;;;;;7.37;3.13;;;23.30;54.30;;;;;;5247967;28;20059;-47
2021/06/14 07:51:33;;;;;;;5.47;3.00;;;23.30;54.20;;;;;;5246052;28;20501;-52
2021/06/14 07:54:06;;;;;;;6.50;3.00;;;23.30;54.20;;;;;;5251497;28;20063;-52
2021/06/14 07:56:43;;;;;;;6.00;3.28;;;23.30;54.20;;;;;;5252073;28;20047;-50
2021/06/14 07:59:16;;;;;;;4.97;3.05;;;23.30;54.20;;;;;;5250367;28;20420;-50
2021/06/14 08:01:48;;;;;;;3.50;3.20;;;23.30;54.10;;;;;;5248134;28;20054;-53
2021/06/14 08:04:21;;;;;;;4.20;3.20;;;23.30;54.10;;;;;;5245338;28;20044;-55
2021/06/14 08:06:53;;;;;;;6.60;2.85;;;23.30;54.10;;;;;;5231549;28;20055;-54
2021/06/14 08:09:28;;;;;;;5.03;2.88;;;23.30;54.10;;;;;;5242100;28;20074;-48
2021/06/14 08:12:02;;;;;;;4.45;2.80;;;23.40;54.10;;;;;;5244876;28;20048;-52
2021/06/14 08:14:35;;;;;;;;;;;23.30;54.10;;;;;;5223644;28;20044;-46
2021/06/14 08:17:07;;;;;;;5.20;3.20;;;23.30;54.10;;;;;;5250138;28;20415;-52
2021/06/14 08:19:51;;;;;;;7.73;3.20;;;23.30;54.10;;;;;;5255210;28;20517;-53
2021/06/14 08:25:21;;;;;;;7.18;3.13;;;23.40;54.20;;;;;;5251546;28;20068;-50
2021/06/14 08:27:54;;;;;;;4.80;2.80;;;23.40;54.20;;;;;;5244861;28;20071;-54
2021/06/14 08:30:28;;;;;;;5.50;2.70;;;23.40;54.20;;;;;;5246644;28;20052;-53
2021/06/14 08:33:00;;;;;;;5.50;2.90;;;23.40;54.20;;;;;;5247593;28;20782;-54
2021/06/14 08:35:33;;;;;;;4.40;3.03;;;23.40;54.20;;;;;;5246789;28;20070;-52
2021/06/14 08:38:06;;;;;;;3.57;2.67;;;23.40;54.10;;;;;;5247500;28;20044;-54
2021/06/14 08:40:39;;;;;;;4.60;3.17;;;23.40;54.20;;;;;;5245506;28;20306;-54
2021/06/14 08:43:12;;;;;;;6.40;3.42;;;23.40;54.10;;;;;;5237652;28;20059;-52
2021/06/14 08:45:45;;;;;;;5.33;3.23;;;23.40;54.00;;;;;;5231074;28;20441;-49
2021/06/14 08:48:19;;;;;;;4.30;3.08;;;23.40;54.00;;;;;;5238989;28;20055;-52
2021/06/14 08:50:52;;;;;;;6.47;3.15;;;23.40;54.00;;;;;;5236141;28;20606;-50
2021/06/14 08:53:25;;;;;;;5.18;2.78;;;23.40;54.00;;;;;;5217591;28;20051;-50
2021/06/14 08:55:58;;;;;;;4.30;3.30;;;23.50;54.10;;;;;;5240699;28;20051;-51
2021/06/14 08:58:32;;;;;;;4.47;3.08;;;23.50;54.10;;;;;;5238267;28;20056;-52
2021/06/14 09:01:04;;;;;;;6.63;3.30;;;23.40;54.00;;;;;;5240290;28;20063;-53
2021/06/14 09:03:37;;;;;;;3.72;3.08;;;23.50;54.10;;;;;;5241916;28;20056;-55
2021/06/14 09:06:11;;;;;;;5.13;3.23;;;23.50;54.10;;;;;;5239383;28;20056;-54
2021/06/14 09:08:56;;;;;;;4.13;3.20;;;23.50;54.10;;;;;;5228365;28;20052;-51
2021/06/14 09:11:31;;;;;;;5.88;2.70;;;23.50;54.00;;;;;;5233804;28;20531;-51
2021/06/14 09:14:16;;;;;;;4.15;3.17;;;23.50;54.10;;;;;;5251913;28;20060;-53
2021/06/14 09:16:51;;;;;;;4.88;3.28;;;23.50;54.00;;;;;;5241608;28;20424;-55
2021/06/14 09:19:33;;;;;;;6.28;3.08;;;23.50;54.00;;;;;;5252238;28;20460;-54
2021/06/14 09:22:23;;;;;;;3.72;2.85;;;23.50;54.00;;;;;;5249754;28;20052;-54
2021/06/14 09:25:03;;;;;;;4.22;2.80;;;23.50;53.80;;;;;;5250231;28;20048;-48
2021/06/14 09:27:47;;;;;;;5.72;3.42;;;23.50;53.80;;;;;;5248558;28;20048;-52
2021/06/14 09:30:22;;;;;;;4.43;2.80;;;23.50;53.70;;;;;;5244651;28;20065;-53
2021/06/14 09:33:25;;;;;;;4.32;3.15;;;23.50;53.80;;;;;;5248151;28;20515;-48
2021/06/14 09:36:06;;;;;;;7.88;3.10;;;23.50;53.70;;;;;;5249153;28;20064;-51
2021/06/14 09:38:38;;;;;;;7.95;3.00;;;23.60;53.80;;;;;;5243992;28;20059;-52
2021/06/14 09:41:17;;;;;;;5.03;3.33;;;23.60;53.80;;;;;;5247606;28;20504;-50
2021/06/14 09:43:50;;;;;;;4.15;3.03;;;23.50;53.70;;;;;;5250737;28;20473;-50
2021/06/14 09:46:30;;;;;;;4.57;2.97;;;23.50;53.80;;;;;;5241354;28;20588;-50
2021/06/14 09:49:16;;;;;;;4.95;2.70;;;23.60;53.90;;;;;;5243922;28;20048;-53
2021/06/14 09:51:51;;;;;;;3.53;2.78;;;23.60;53.90;;;;;;5245097;28;20757;-53
2021/06/14 09:54:26;;;;;;;6.18;2.70;;;23.60;53.90;;;;;;5242207;28;20051;-51
2021/06/14 09:57:00;;;;;;;5.10;2.83;;;23.60;53.90;;;;;;5252558;28;20052;-47
2021/06/14 09:59:41;;;;;;;6.63;2.80;;;23.60;53.90;;;;;;5247061;28;20063;-54
2021/06/14 10:02:17;;;;;;;5.25;3.28;;;23.60;54.00;;;;;;5227502;28;20048;-55
2021/06/14 10:04:52;;;;;;;11.00;2.95;;;23.60;54.00;;;;;;5243864;28;20055;-49
2021/06/14 10:07:25;;;;;;;9.00;3.60;;;23.60;53.90;;;;;;5239281;28;20056;-55
2021/06/14 10:09:57;;;;;;;5.50;2.55;;;23.70;53.90;;;;;;5249904;28;20507;-54
2021/06/14 10:12:31;;;;;;;5.53;3.20;;;23.60;53.80;;;;;;5246166;28;20061;-51
2021/06/14 10:15:05;;;;;;;4.70;3.20;;;23.60;53.80;;;;;;5222441;28;20051;-53
2021/06/14 10:17:41;;;;;;;;;;;23.60;53.80;;;;;;5243022;28;20052;-53
2021/06/14 10:20:20;;;;;;;9.05;3.20;;;23.60;53.80;;;;;;5246172;28;19920;-51
2021/06/14 10:22:55;;;;;;;6.88;3.33;;;23.60;53.80;;;;;;5248467;28;20055;-51
2021/06/14 10:25:43;;;;;;;6.22;3.10;;;23.70;53.90;;;;;;5245810;28;20075;-56
2021/06/14 10:28:16;;;;;;;8.32;3.05;;;23.70;53.90;;;;;;5247943;28;20060;-54
2021/06/14 10:30:49;;;;;;;5.93;3.22;;;23.70;53.90;;;;;;5247205;28;20059;-47
2021/06/14 10:33:27;;;;;;;6.38;3.20;;;23.70;53.80;;;;;;5243331;28;20048;-54
2021/06/14 10:36:00;;;;;;;6.38;2.60;;;23.70;53.80;;;;;;5231244;28;20534;-47
2021/06/14 10:38:50;;;;;;;7.45;3.08;;;23.70;53.90;;;;;;5245307;28;20056;-52
2021/06/14 10:41:24;;;;;;;4.18;2.97;;;23.70;53.90;;;;;;5226493;28;20044;-52
2021/06/14 10:43:57;;;;;;;6.22;3.13;;;23.70;53.90;;;;;;5234005;28;20044;-51
2021/06/14 10:46:30;;;;;;;7.40;3.42;;;23.70;53.80;;;;;;5239907;28;20160;-54
2021/06/14 10:49:04;;;;;;;5.57;3.15;;;23.70;53.90;;;;;;5244844;28;20599;-54
2021/06/14 10:51:37;;;;;;;6.95;2.85;;;23.70;53.90;;;;;;5244219;28;20527;-49
2021/06/14 10:54:17;;;;;;;5.83;3.20;;;23.80;53.90;;;;;;5242079;28;20056;-49
2021/06/14 10:56:50;;;;;;;5.45;3.08;;;23.80;53.90;;;;;;5249165;28;20062;-49
2021/06/14 10:59:23;;;;;;;5.28;3.00;;;23.80;53.80;;;;;;5242847;28;20060;-54
2021/06/14 11:02:04;;;;;;;4.22;3.22;;;23.80;53.80;;;;;;5243884;28;20059;-51
2021/06/14 11:04:37;;;;;;;7.78;2.80;;;23.80;53.90;;;;;;5231628;28;20134;-53
2021/06/14 11:07:10;;;;;;;5.15;3.45;;;23.80;53.70;;;;;;5226970;28;20062;-55
2021/06/14 11:09:58;;;;;;;6.68;3.38;;;23.80;53.90;;;;;;5242464;28;20052;-52
2021/06/14 11:12:31;;;;;;;6.47;3.57;;;23.80;53.70;;;;;;5242406;28;24911;-53
2021/06/14 11:15:10;;;;;;;4.85;2.75;;;23.80;53.70;;;;;;5238096;28;20424;-52
2021/06/14 11:17:42;;;;;;;4.47;2.83;;;23.80;53.70;;;;;;5242104;28;20064;-57
2021/06/14 11:20:15;;;;;;;5.75;3.13;;;23.80;53.80;;;;;;5226121;28;20055;-55
2021/06/14 11:22:49;;;;;;;4.88;3.22;;;23.80;53.70;;;;;;5229799;28;20047;-48
2021/06/14 11:25:28;;;;;;;6.28;2.55;;;23.80;53.70;;;;;;5242504;28;20044;-55
2021/06/14 11:28:04;;;;;;;5.32;2.75;;;23.80;53.70;;;;;;5242629;28;20063;-50
2021/06/14 11:30:49;;;;;;;5.20;3.03;;;23.80;53.60;;;;;;5241731;28;20050;-57
2021/06/14 11:33:25;;;;;;;4.97;2.80;;;23.80;53.50;;;;;;5240979;28;20052;-56
2021/06/14 11:35:58;;;;;;;5.18;2.92;;;23.80;53.50;;;;;;5237549;28;20052;-51
2021/06/14 11:38:34;;;;;;;6.90;2.90;;;23.90;53.40;;;;;;5238819;28;20048;-56
2021/06/14 11:41:06;;;;;;;4.88;2.67;;;23.80;53.30;;;;;;5236801;28;20064;-54
2021/06/14 11:43:39;;;;;;;5.93;3.47;;;23.90;53.40;;;;;;5239080;28;20047;-56
2021/06/14 11:46:21;;;;;;;8.82;3.63;;;23.90;53.30;;;;;;5237514;28;20506;-49
2021/06/14 11:48:56;;;;;;;5.78;3.38;;;23.90;53.30;;;;;;5237381;28;20055;-53
2021/06/14 11:51:32;;;;;;;7.97;3.03;;;23.90;53.20;;;;;;5216937;28;20420;-51
2021/06/14 11:54:07;;;;;;;7.13;2.55;;;23.90;53.30;;;;;;5235156;28;20067;-54
2021/06/14 11:56:40;;;;;;;14.73;3.17;;;23.90;53.30;;;;;;5238265;28;20587;-54
2021/06/14 11:59:12;;;;;;;9.45;3.30;;;23.90;53.40;;;;;;5243495;28;20067;-49
2021/06/14 12:01:45;;;;;;;6.03;3.20;;;23.90;53.40;;;;;;5243678;28;20055;-52
2021/06/14 12:04:21;;;;;;;10.80;3.20;;;24.00;53.60;;;;;;5242854;28;20303;-53
2021/06/14 12:06:56;;;;;;;8.20;3.15;;;24.00;53.80;;;;;;5240449;28;20547;-52
2021/06/14 12:09:30;;;;;;;6.60;3.45;;;24.10;53.90;;;;;;5239218;28;20416;-55
2021/06/14 12:12:04;;;;;;;7.00;3.30;;;24.10;54.00;;;;;;5244560;28;20063;-49
2021/06/14 12:14:37;;;;;;;12.82;4.00;;;24.10;54.10;;;;;;5245540;28;20063;-54
2021/06/14 12:17:09;;;;;;;12.88;3.42;;;24.10;54.10;;;;;;5243166;28;20067;-53
2021/06/14 12:19:42;;;;;;;8.05;3.08;;;24.20;54.30;;;;;;5245171;28;20067;-49
2021/06/14 12:22:19;;;;;;;7.30;3.67;;;24.20;54.40;;;;;;5252904;28;20048;-49
2021/06/14 12:25:03;;;;;;;11.45;3.78;;;24.20;54.50;;;;;;5241572;28;20045;-52
2021/06/14 12:27:36;;;;;;;11.43;3.97;;;24.20;54.50;;;;;;5238143;28;20051;-55
2021/06/14 12:30:11;;;;;;;10.30;3.67;;;24.20;54.60;;;;;;5243895;28;20047;-48
2021/06/14 12:32:44;;;;;;;8.45;3.08;;;24.20;54.70;;;;;;5236574;28;20059;-56
2021/06/14 12:35:17;;;;;;;12.48;3.83;;;24.20;54.80;;;;;;5244686;28;20500;-55
2021/06/14 12:37:50;;;;;;;9.80;4.23;;;24.20;54.90;;;;;;5240090;28;20063;-49
2021/06/14 12:40:27;;;;;;;10.85;3.30;;;24.30;55.00;;;;;;5243381;28;20592;-55
2021/06/14 12:43:03;;;;;;;12.77;3.72;;;24.30;55.10;;;;;;5240621;28;20055;-52
2021/06/14 12:45:40;;;;;;;7.22;3.35;;;24.30;55.20;;;;;;5233419;28;20047;-50
2021/06/14 12:48:15;;;;;;;14.88;4.00;;;24.30;55.20;;;;;;5247150;28;20048;-51
2021/06/14 12:50:53;;;;;;;9.13;3.55;;;24.30;55.20;;;;;;5253279;28;20055;-50
2021/06/14 12:53:28;;;;;;;8.05;3.55;;;24.40;55.30;;;;;;5226794;28;20071;-52
2021/06/14 12:56:01;;;;;;;13.18;4.20;;;24.40;55.30;;;;;;5231508;28;20819;-53
2021/06/14 12:58:36;;;;;;;10.98;3.28;;;24.40;55.40;;;;;;5245406;28;20052;-52
2021/06/14 13:01:10;;;;;;;9.77;3.83;;;24.40;55.50;;;;;;5227068;28;20052;-51
2021/06/14 13:03:43;;;;;;;9.70;3.15;;;24.30;55.40;;;;;;5254167;28;20055;-54
2021/06/14 13:06:15;;;;;;;10.57;3.67;;;24.40;55.50;;;;;;5254026;28;20071;-52
2021/06/14 13:08:48;;;;;;;5.77;2.90;;;24.40;55.50;;;;;;5253266;28;20432;-49
2021/06/14 13:11:21;;;;;;;6.57;3.40;;;24.40;55.50;;;;;;5251725;28;20053;-54
2021/06/14 13:13:55;;;;;;;4.97;3.00;;;24.40;55.50;;;;;;5249012;28;20516;-48
2021/06/14 13:16:30;;;;;;;4.90;2.90;;;24.40;55.50;;;;;;5247425;28;20057;-48
2021/06/14 13:19:03;;;;;;;6.07;2.70;;;24.40;55.50;;;;;;5247330;28;20060;-50
2021/06/14 13:21:36;;;;;;;;;;;24.40;55.50;;;;;;5249402;28;20048;-48
2021/06/14 13:24:11;;;;;;;7.05;3.00;;;24.40;55.50;;;;;;5249864;28;19935;-49
2021/06/14 13:26:49;;;;;;;5.72;2.65;;;24.40;55.50;;;;;;5249354;28;20071;-50
2021/06/14 13:29:28;;;;;;;8.23;3.25;;;24.40;55.50;;;;;;5249984;28;20496;-52
2021/06/14 13:32:45;;;;;;;9.32;3.28;;;24.40;55.50;;;;;;5251623;28;20052;-52